全部
Yorketown Airport (Yorketown Southern Australia) YYOR 天氣
There is no TAF data available at YYOR or any nearby airports.
There is no METAR data available at YYOR. Showing METAR data for YMIN (19 mi N).
XML近期METAR歷史資料(YYOR無資料)
| Date | Time (ACST) | Flight Rules | Wind Dir. | Speed | Type | Height AGL (ft) | Visibility | Temp (°C) | Temp (°F) | Dew Point (°C) | Dew Point (°F) | Rel. Humid. | Pressure | Density Altitude | Remarks |
|---|---|---|---|---|---|---|---|---|---|---|---|---|---|---|---|
| 03-五月 | 06:31 | n/a | 310° | 24 kt | Missing | 15° | 59° | 8° | 46° | 63% | 1009 mb | 236 ft | Wind gusting to 34 KT | ||
| 03-五月 | 05:30 | n/a | 300° | 26 kt | Missing | 15° | 59° | 8° | 46° | 63% | 1009 mb | 236 ft | |||
| 03-五月 | 04:30 | n/a | 300° | 24 kt | Missing | 15° | 59° | 9° | 48° | 67% | 1009 mb | 236 ft | |||
| 03-五月 | 03:30 | n/a | 300° | 23 kt | Missing | 15° | 59° | 9° | 48° | 67% | 1009 mb | 236 ft | |||
| 03-五月 | 02:30 | n/a | 300° | 20 kt | Missing | 15° | 59° | 10° | 50° | 72% | 1009 mb | 236 ft | |||
| 03-五月 | 01:38 | n/a | 290° | 23 kt | Missing | 13° | 55° | 10° | 50° | 82% | 1009 mb | -4 ft | Wind gusting to 33 KT | ||
| 03-五月 | 00:30 | n/a | 310° | 27 kt | Missing | 15° | 59° | 11° | 51° | 77% | 1009 mb | 236 ft | |||
| 02-五月 | 23:30 | n/a | 310° | 24 kt | Missing | 15° | 59° | 11° | 51° | 77% | 1009 mb | 236 ft | |||
| 02-五月 | 22:30 | n/a | 320° | 24 kt | Missing | 16° | 60° | 10° | 50° | 68% | 1010 mb | 327 ft | |||
| 02-五月 | 21:30 | n/a | 320° | 24 kt | Missing | 16° | 60° | 10° | 50° | 68% | 1010 mb | 327 ft | |||
| 02-五月 | 20:30 | n/a | 320° | 23 kt | Missing | 16° | 60° | 10° | 50° | 68% | 1010 mb | 327 ft | |||
| 02-五月 | 19:30 | n/a | 320° | 21 kt | Missing | 17° | 62° | 9° | 48° | 59% | 1009 mb | 476 ft | |||
| 02-五月 | 18:30 | n/a | 310° | 19 kt | Missing | 17° | 62° | 10° | 50° | 63% | 1009 mb | 476 ft | |||
| 02-五月 | 17:30 | n/a | 310° | 12 kt | Missing | 17° | 62° | 11° | 51° | 68% | 1008 mb | 506 ft | |||
| 02-五月 | 16:30 | n/a | 330° | 18 kt | Missing | 18° | 64° | 11° | 51° | 64% | 1008 mb | 626 ft | |||
| 02-五月 | 15:30 | n/a | 320° | 17 kt | Missing | 18° | 64° | 12° | 53° | 68% | 1008 mb | 626 ft | |||
| 02-五月 | 14:30 | n/a | 320° | 17 kt | Missing | 18° | 64° | 13° | 55° | 73% | 1008 mb | 626 ft | |||
| 02-五月 | 13:30 | n/a | 320° | 17 kt | Missing | 17° | 62° | 13° | 55° | 77% | 1008 mb | 506 ft | |||
| 02-五月 | 12:30 | n/a | 320° | 16 kt | Missing | 16° | 60° | 14° | 57° | 88% | 1008 mb | 386 ft | |||
| 02-五月 | 11:30 | n/a | 310° | 18 kt | Missing | 16° | 60° | 14° | 57° | 88% | 1009 mb | 356 ft | |||
| 02-五月 | 10:30 | n/a | 300° | 20 kt | Missing | 17° | 62° | 13° | 55° | 77% | 1008 mb | 506 ft | |||
| 02-五月 | 09:30 | n/a | 290° | 20 kt | Missing | 18° | 64° | 14° | 57° | 77% | 1009 mb | 596 ft | |||
| 02-五月 | 08:33 | n/a | 320° | 25 kt | Missing | 20° | 68° | 15° | 59° | 73% | 1008 mb | 866 ft | |||
| 02-五月 | 07:30 | n/a | 20° | 14 kt | Missing | 18° | 64° | 14° | 57° | 77% | 1006 mb | 685 ft |
登入
| 您的瀏覽器不支援. 升級您的瀏覽器 |
